createdAt,value
2022-11-16T02:02:04.834Z,124.75
2022-11-16T02:04:32.534Z,121.25
2022-11-16T02:07:56.686Z,115.25
2022-11-16T02:10:39.308Z,126.25
2022-11-16T02:13:13.881Z,120.75
2022-11-16T02:16:15.792Z,117.00
2022-11-16T02:19:12.050Z,114.50
2022-11-16T02:21:52.232Z,124.25
2022-11-16T02:25:17.649Z,116.25
2022-11-16T02:28:02.310Z,116.00
2022-11-16T02:30:29.592Z,113.00
2022-11-16T02:33:04.980Z,117.25
2022-11-16T02:35:36.950Z,115.25
2022-11-16T02:38:13.688Z,127.33
2022-11-16T02:41:01.960Z,114.00
2022-11-16T02:43:38.580Z,107.50
2022-11-16T02:46:09.903Z,115.50
2022-11-16T02:48:43.722Z,103.50
2022-11-16T02:51:12.224Z,121.25
2022-11-16T02:53:52.476Z,111.00
2022-11-16T02:56:19.949Z,85.00
2022-11-16T02:58:48.182Z,110.50
2022-11-16T03:01:36.631Z,104.25
2022-11-16T03:04:20.521Z,101.25
2022-11-16T03:06:51.601Z,100.25
2022-11-16T03:09:24.731Z,96.25
2022-11-16T03:11:59.790Z,102.25
2022-11-16T03:14:42.459Z,102.75
2022-11-16T03:17:20.208Z,107.00
2022-11-16T03:20:04.626Z,124.00
2022-11-16T03:22:45.828Z,113.50
2022-11-16T03:25:16.787Z,112.25
2022-11-16T03:28:05.750Z,108.25
2022-11-16T03:30:41.141Z,102.00
2022-11-16T03:33:21.056Z,91.00
2022-11-16T03:36:11.653Z,97.75
2022-11-16T03:38:41.589Z,98.25
2022-11-16T03:41:11.278Z,100.50
2022-11-16T03:43:40.534Z,80.00
2022-11-16T03:46:08.195Z,103.33
2022-11-16T03:48:36.597Z,97.50
2022-11-16T03:51:04.896Z,103.00
2022-11-16T03:53:31.935Z,100.75
2022-11-16T03:55:59.362Z,108.25
2022-11-16T03:58:26.417Z,109.75
2022-11-16T04:00:54.674Z,104.00
2022-11-16T04:03:22.058Z,113.25
2022-11-16T04:06:07.939Z,107.75
2022-11-16T04:08:53.417Z,136.00
2022-11-16T04:11:41.349Z,129.25
2022-11-16T04:14:36.464Z,144.75
2022-11-16T04:17:23.380Z,134.50
2022-11-16T04:20:09.009Z,109.75
2022-11-16T04:23:10.110Z,134.25
2022-11-16T04:25:39.460Z,128.75
2022-11-16T04:28:13.747Z,133.00
2022-11-16T04:31:04.952Z,129.25
2022-11-16T04:33:51.840Z,127.25
2022-11-16T04:36:37.666Z,134.00
2022-11-16T04:39:05.698Z,125.00
2022-11-16T04:41:51.788Z,97.50
2022-11-16T04:44:19.821Z,102.25
2022-11-16T04:47:05.971Z,110.67
2022-11-16T04:49:33.862Z,108.67
2022-11-16T04:52:01.133Z,105.50
